sensor_id;sensor_type;location;lat;lon;timestamp;pressure;altitude;pressure_sealevel;temperature;humidity
46223;BME280;31943;51.410;7.564;2023-01-31T00:01:57;101066.38;;;5.09;68.74
46223;BME280;31943;51.410;7.564;2023-01-31T00:04:26;101065.50;;;5.08;68.82
46223;BME280;31943;51.410;7.564;2023-01-31T00:06:52;101077.47;;;5.06;68.85
46223;BME280;31943;51.410;7.564;2023-01-31T00:09:18;101075.66;;;5.04;69.20
46223;BME280;31943;51.410;7.564;2023-01-31T00:11:43;101074.63;;;5.00;68.96
46223;BME280;31943;51.410;7.564;2023-01-31T00:14:09;101063.53;;;5.03;69.32
46223;BME280;31943;51.410;7.564;2023-01-31T00:16:40;101074.81;;;5.05;69.11
46223;BME280;31943;51.410;7.564;2023-01-31T00:19:06;101077.25;;;5.02;69.09
46223;BME280;31943;51.410;7.564;2023-01-31T00:21:33;101079.91;;;5.03;69.39
46223;BME280;31943;51.410;7.564;2023-01-31T00:23:59;101066.09;;;5.03;69.33
46223;BME280;31943;51.410;7.564;2023-01-31T00:26:27;101067.91;;;5.04;69.24
46223;BME280;31943;51.410;7.564;2023-01-31T00:28:55;101057.38;;;5.01;69.07
46223;BME280;31943;51.410;7.564;2023-01-31T00:31:23;101062.41;;;4.98;69.35
46223;BME280;31943;51.410;7.564;2023-01-31T00:33:51;101065.69;;;4.93;69.31
46223;BME280;31943;51.410;7.564;2023-01-31T00:36:18;101073.34;;;4.92;69.21
46223;BME280;31943;51.410;7.564;2023-01-31T00:38:47;101071.59;;;4.91;69.35
46223;BME280;31943;51.410;7.564;2023-01-31T00:41:13;101066.63;;;4.95;69.28
46223;BME280;31943;51.410;7.564;2023-01-31T00:43:38;101061.41;;;4.94;69.21
46223;BME280;31943;51.410;7.564;2023-01-31T00:46:05;101070.72;;;4.90;69.38
46223;BME280;31943;51.410;7.564;2023-01-31T00:48:31;101069.81;;;4.90;69.44
46223;BME280;31943;51.410;7.564;2023-01-31T00:50:57;101075.06;;;4.91;69.70
46223;BME280;31943;51.410;7.564;2023-01-31T00:53:22;101073.44;;;4.93;69.50
46223;BME280;31943;51.410;7.564;2023-01-31T00:55:50;101066.50;;;4.92;69.52
46223;BME280;31943;51.410;7.564;2023-01-31T00:58:16;101054.59;;;4.96;69.24
46223;BME280;31943;51.410;7.564;2023-01-31T01:00:42;101059.03;;;4.99;69.02
46223;BME280;31943;51.410;7.564;2023-01-31T01:03:07;101058.75;;;4.92;69.19
46223;BME280;31943;51.410;7.564;2023-01-31T01:05:34;101060.56;;;4.95;69.30
46223;BME280;31943;51.410;7.564;2023-01-31T01:07:59;101049.47;;;4.98;69.27
46223;BME280;31943;51.410;7.564;2023-01-31T01:10:26;101047.72;;;4.97;68.97
46223;BME280;31943;51.410;7.564;2023-01-31T01:12:54;101055.41;;;4.95;69.54
46223;BME280;31943;51.410;7.564;2023-01-31T01:15:19;101057.72;;;4.89;69.31
46223;BME280;31943;51.410;7.564;2023-01-31T01:17:45;101056.00;;;4.89;69.25
46223;BME280;31943;51.410;7.564;2023-01-31T01:20:11;101055.13;;;4.89;69.51
46223;BME280;31943;51.410;7.564;2023-01-31T01:22:37;101060.38;;;4.90;69.42
46223;BME280;31943;51.410;7.564;2023-01-31T01:25:03;101067.31;;;4.91;69.13
46223;BME280;31943;51.410;7.564;2023-01-31T01:27:29;101063.16;;;4.95;69.25
46223;BME280;31943;51.410;7.564;2023-01-31T01:29:57;101061.47;;;4.95;69.05
46223;BME280;31943;51.410;7.564;2023-01-31T01:32:23;101057.13;;;4.94;69.05
46223;BME280;31943;51.410;7.564;2023-01-31T01:34:48;101059.09;;;5.00;69.11
46223;BME280;31943;51.410;7.564;2023-01-31T01:37:14;101055.91;;;5.06;69.12
46223;BME280;31943;51.410;7.564;2023-01-31T01:39:39;101058.53;;;5.07;69.15
46223;BME280;31943;51.410;7.564;2023-01-31T01:42:05;101054.31;;;5.09;68.85
46223;BME280;31943;51.410;7.564;2023-01-31T01:44:49;101045.16;;;5.16;68.71
46223;BME280;31943;51.410;7.564;2023-01-31T01:47:22;101047.59;;;5.13;68.74
46223;BME280;31943;51.410;7.564;2023-01-31T01:49:54;101052.66;;;5.10;68.65
46223;BME280;31943;51.410;7.564;2023-01-31T01:52:22;101063.78;;;5.09;68.71
46223;BME280;31943;51.410;7.564;2023-01-31T01:54:53;101058.63;;;5.09;68.56
46223;BME280;31943;51.410;7.564;2023-01-31T01:57:23;101064.91;;;5.14;68.75
46223;BME280;31943;51.410;7.564;2023-01-31T01:59:54;101065.63;;;5.11;68.66
46223;BME280;31943;51.410;7.564;2023-01-31T02:02:26;101067.13;;;5.06;68.67
46223;BME280;31943;51.410;7.564;2023-01-31T02:04:52;101065.16;;;5.01;68.54
46223;BME280;31943;51.410;7.564;2023-01-31T02:07:18;101054.66;;;4.98;68.65
46223;BME280;31943;51.410;7.564;2023-01-31T02:09:47;101060.31;;;4.89;68.58
46223;BME280;31943;51.410;7.564;2023-01-31T02:12:15;101059.28;;;4.85;68.58
46223;BME280;31943;51.410;7.564;2023-01-31T02:14:41;101058.31;;;4.83;68.87
46223;BME280;31943;51.410;7.564;2023-01-31T02:17:13;101063.22;;;4.77;68.77
46223;BME280;31943;51.410;7.564;2023-01-31T02:19:53;101053.66;;;4.76;68.55
46223;BME280;31943;51.410;7.564;2023-01-31T02:22:25;101054.69;;;4.80;68.81
46223;BME280;31943;51.410;7.564;2023-01-31T02:25:15;101060.75;;;4.80;68.58
46223;BME280;31943;51.410;7.564;2023-01-31T02:34:16;101077.88;;;4.78;68.25
46223;BME280;31943;51.410;7.564;2023-01-31T02:36:54;101081.38;;;4.79;68.53
46223;BME280;31943;51.410;7.564;2023-01-31T02:39:27;101070.09;;;4.77;68.53
46223;BME280;31943;51.410;7.564;2023-01-31T02:42:00;101077.97;;;4.80;68.20
46223;BME280;31943;51.410;7.564;2023-01-31T02:44:35;101079.75;;;4.81;68.24
46223;BME280;31943;51.410;7.564;2023-01-31T02:47:09;101089.28;;;4.82;68.02
46223;BME280;31943;51.410;7.564;2023-01-31T02:49:41;101079.69;;;4.79;68.15
46223;BME280;31943;51.410;7.564;2023-01-31T02:52:17;101081.50;;;4.82;68.07
46223;BME280;31943;51.410;7.564;2023-01-31T02:54:52;101075.63;;;4.84;68.03
46223;BME280;31943;51.410;7.564;2023-01-31T02:57:20;101075.63;;;4.84;68.10
46223;BME280;31943;51.410;7.564;2023-01-31T02:59:45;101068.66;;;4.83;68.13
46223;BME280;31943;51.410;7.564;2023-01-31T03:02:12;101079.00;;;4.83;68.05
46223;BME280;31943;51.410;7.564;2023-01-31T03:04:39;101074.00;;;4.86;68.19
46223;BME280;31943;51.410;7.564;2023-01-31T03:07:06;101071.41;;;4.86;67.95
46223;BME280;31943;51.410;7.564;2023-01-31T03:09:36;101064.16;;;4.79;68.12
46223;BME280;31943;51.410;7.564;2023-01-31T03:12:15;101068.38;;;4.77;67.83
46223;BME280;31943;51.410;7.564;2023-01-31T03:14:47;101065.78;;;4.77;67.74
46223;BME280;31943;51.410;7.564;2023-01-31T03:17:24;101062.25;;;4.75;67.72
46223;BME280;31943;51.410;7.564;2023-01-31T03:19:59;101065.59;;;4.72;67.96
46223;BME280;31943;51.410;7.564;2023-01-31T03:22:29;101066.31;;;4.70;67.95
46223;BME280;31943;51.410;7.564;2023-01-31T03:24:57;101048.28;;;4.71;67.59
46223;BME280;31943;51.410;7.564;2023-01-31T03:27:23;101054.25;;;4.70;67.63
46223;BME280;31943;51.410;7.564;2023-01-31T03:29:50;101044.75;;;4.69;67.75
46223;BME280;31943;51.410;7.564;2023-01-31T03:32:21;101034.63;;;4.74;67.60
46223;BME280;31943;51.410;7.564;2023-01-31T03:34:47;101042.53;;;4.77;67.63
46223;BME280;31943;51.410;7.564;2023-01-31T03:37:20;101044.44;;;4.81;67.67
46223;BME280;31943;51.410;7.564;2023-01-31T03:39:54;101042.81;;;4.83;67.63
46223;BME280;31943;51.410;7.564;2023-01-31T03:42:22;101036.00;;;4.85;67.88
46223;BME280;31943;51.410;7.564;2023-01-31T03:44:54;101026.69;;;4.89;68.02
46223;BME280;31943;51.410;7.564;2023-01-31T03:47:24;101025.19;;;4.94;67.99
46223;BME280;31943;51.410;7.564;2023-01-31T03:49:51;101018.44;;;4.98;67.87
46223;BME280;31943;51.410;7.564;2023-01-31T03:52:25;101022.47;;;4.91;67.59
46223;BME280;31943;51.410;7.564;2023-01-31T03:54:55;101013.84;;;4.90;67.68
46223;BME280;31943;51.410;7.564;2023-01-31T03:57:27;101019.88;;;4.91;67.74
46223;BME280;31943;51.410;7.564;2023-01-31T03:59:57;101020.91;;;4.94;67.74
46223;BME280;31943;51.410;7.564;2023-01-31T04:02:27;101020.69;;;4.90;67.92
46223;BME280;31943;51.410;7.564;2023-01-31T04:04:59;101020.63;;;4.88;67.93
46223;BME280;31943;51.410;7.564;2023-01-31T04:07:29;101024.03;;;4.87;68.10
46223;BME280;31943;51.410;7.564;2023-01-31T04:09:55;101017.03;;;4.85;67.93
46223;BME280;31943;51.410;7.564;2023-01-31T04:12:20;101018.84;;;4.87;68.01
46223;BME280;31943;51.410;7.564;2023-01-31T04:14:46;101012.66;;;4.84;68.08
46223;BME280;31943;51.410;7.564;2023-01-31T04:17:12;101007.44;;;4.82;67.93
46223;BME280;31943;51.410;7.564;2023-01-31T04:19:37;100996.19;;;4.82;67.99
46223;BME280;31943;51.410;7.564;2023-01-31T04:22:03;100995.44;;;4.84;67.97
46223;BME280;31943;51.410;7.564;2023-01-31T04:24:31;100993.81;;;4.86;68.01
46223;BME280;31943;51.410;7.564;2023-01-31T04:26:57;100995.56;;;4.87;67.91
46223;BME280;31943;51.410;7.564;2023-01-31T04:29:22;100994.53;;;4.84;68.02
46223;BME280;31943;51.410;7.564;2023-01-31T04:31:48;100997.97;;;4.83;68.29
46223;BME280;31943;51.410;7.564;2023-01-31T04:34:14;100995.44;;;4.84;68.04
46223;BME280;31943;51.410;7.564;2023-01-31T04:36:41;101004.69;;;4.79;67.66
46223;BME280;31943;51.410;7.564;2023-01-31T04:39:08;100997.88;;;4.81;68.01
46223;BME280;31943;51.410;7.564;2023-01-31T04:41:35;100997.88;;;4.81;67.69
46223;BME280;31943;51.410;7.564;2023-01-31T04:44:01;100997.88;;;4.81;67.81
46223;BME280;31943;51.410;7.564;2023-01-31T04:46:26;100998.56;;;4.77;67.87
46223;BME280;31943;51.410;7.564;2023-01-31T04:48:52;100996.59;;;4.71;68.13
46223;BME280;31943;51.410;7.564;2023-01-31T04:51:17;100987.03;;;4.70;68.10
46223;BME280;31943;51.410;7.564;2023-01-31T04:53:43;100986.03;;;4.67;68.07
46223;BME280;31943;51.410;7.564;2023-01-31T04:56:09;100982.63;;;4.68;68.08
46223;BME280;31943;51.410;7.564;2023-01-31T04:58:37;100983.31;;;4.64;68.24
46223;BME280;31943;51.410;7.564;2023-01-31T05:01:03;100976.66;;;4.69;68.44
46223;BME280;31943;51.410;7.564;2023-01-31T05:03:28;100969.84;;;4.71;68.28
46223;BME280;31943;51.410;7.564;2023-01-31T05:05:54;100968.91;;;4.69;68.40
46223;BME280;31943;51.410;7.564;2023-01-31T05:08:19;100961.16;;;4.69;68.53
46223;BME280;31943;51.410;7.564;2023-01-31T05:10:45;100962.03;;;4.69;68.46
46223;BME280;31943;51.410;7.564;2023-01-31T05:13:10;100962.91;;;4.70;68.57
46223;BME280;31943;51.410;7.564;2023-01-31T05:15:38;100955.75;;;4.64;68.51
46223;BME280;31943;51.410;7.564;2023-01-31T05:18:04;100960.88;;;4.63;68.85
46223;BME280;31943;51.410;7.564;2023-01-31T05:20:31;100959.97;;;4.62;68.91
46223;BME280;31943;51.410;7.564;2023-01-31T05:22:58;100957.19;;;4.58;69.08
46223;BME280;31943;51.410;7.564;2023-01-31T05:25:24;100952.97;;;4.60;69.17
46223;BME280;31943;51.410;7.564;2023-01-31T05:27:51;100951.19;;;4.59;69.01
46223;BME280;31943;51.410;7.564;2023-01-31T05:30:17;100945.88;;;4.55;69.32
46223;BME280;31943;51.410;7.564;2023-01-31T05:32:45;100927.91;;;4.59;69.51
46223;BME280;31943;51.410;7.564;2023-01-31T05:35:11;100931.53;;;4.62;69.24
46223;BME280;31943;51.410;7.564;2023-01-31T05:37:37;100926.50;;;4.65;69.24
46223;BME280;31943;51.410;7.564;2023-01-31T05:40:03;100919.72;;;4.67;69.40
46223;BME280;31943;51.410;7.564;2023-01-31T05:42:30;100927.56;;;4.70;69.41
46223;BME280;31943;51.410;7.564;2023-01-31T05:44:56;100935.47;;;4.73;69.58
46223;BME280;31943;51.410;7.564;2023-01-31T05:47:22;100923.59;;;4.77;69.40
46223;BME280;31943;51.410;7.564;2023-01-31T05:49:50;100934.88;;;4.79;69.46
46223;BME280;31943;51.410;7.564;2023-01-31T05:52:15;100922.56;;;4.73;69.72
46223;BME280;31943;51.410;7.564;2023-01-31T05:54:41;100930.31;;;4.73;69.48
46223;BME280;31943;51.410;7.564;2023-01-31T05:57:07;100927.72;;;4.73;69.70
46223;BME280;31943;51.410;7.564;2023-01-31T05:59:33;100926.78;;;4.71;69.57
46223;BME280;31943;51.410;7.564;2023-01-31T06:01:59;100929.44;;;4.73;69.64
46223;BME280;31943;51.410;7.564;2023-01-31T06:04:25;100928.56;;;4.72;69.70
46223;BME280;31943;51.410;7.564;2023-01-31T06:06:52;100926.69;;;4.70;69.69
46223;BME280;31943;51.410;7.564;2023-01-31T06:09:17;100916.16;;;4.65;69.63
46223;BME280;31943;51.410;7.564;2023-01-31T06:11:43;100919.78;;;4.69;69.68
46223;BME280;31943;51.410;7.564;2023-01-31T06:14:11;100909.47;;;4.70;69.61
46223;BME280;31943;51.410;7.564;2023-01-31T06:16:37;100902.03;;;4.77;69.63
46223;BME280;31943;51.410;7.564;2023-01-31T06:19:03;100900.91;;;4.71;69.62
46223;BME280;31943;51.410;7.564;2023-01-31T06:21:29;100904.03;;;4.64;69.61
46223;BME280;31943;51.410;7.564;2023-01-31T06:23:55;100886.16;;;4.69;69.55
46223;BME280;31943;51.410;7.564;2023-01-31T06:26:21;100881.03;;;4.70;69.57
46223;BME280;31943;51.410;7.564;2023-01-31T06:28:48;100882.81;;;4.71;69.60
46223;BME280;31943;51.410;7.564;2023-01-31T06:31:13;100888.94;;;4.73;69.17
46223;BME280;31943;51.410;7.564;2023-01-31T06:33:39;100900.91;;;4.71;69.24
46223;BME280;31943;51.410;7.564;2023-01-31T06:36:05;100889.78;;;4.72;69.22
46223;BME280;31943;51.410;7.564;2023-01-31T06:38:31;100900.84;;;4.70;68.92
46223;BME280;31943;51.410;7.564;2023-01-31T06:40:58;100908.75;;;4.73;69.01
46223;BME280;31943;51.410;7.564;2023-01-31T06:43:24;100920.84;;;4.74;68.75
46223;BME280;31943;51.410;7.564;2023-01-31T06:45:49;100913.66;;;4.67;68.84
46223;BME280;31943;51.410;7.564;2023-01-31T06:48:15;100909.28;;;4.66;68.82
46223;BME280;31943;51.410;7.564;2023-01-31T06:50:42;100904.28;;;4.69;68.79
46223;BME280;31943;51.410;7.564;2023-01-31T06:53:08;100904.13;;;4.66;68.67
46223;BME280;31943;51.410;7.564;2023-01-31T06:55:34;100905.91;;;4.67;69.03
46223;BME280;31943;51.410;7.564;2023-01-31T06:58:02;100893.84;;;4.67;69.00
46223;BME280;31943;51.410;7.564;2023-01-31T07:00:33;100893.84;;;4.67;68.83
46223;BME280;31943;51.410;7.564;2023-01-31T07:03:00;100894.72;;;4.68;68.95
46223;BME280;31943;51.410;7.564;2023-01-31T07:05:26;100900.72;;;4.67;68.87
46223;BME280;31943;51.410;7.564;2023-01-31T07:07:55;100896.63;;;4.72;68.70
46223;BME280;31943;51.410;7.564;2023-01-31T07:10:21;100919.09;;;4.73;68.77
46223;BME280;31943;51.410;7.564;2023-01-31T07:12:46;100920.06;;;4.75;68.80
46223;BME280;31943;51.410;7.564;2023-01-31T07:15:15;100926.28;;;4.80;68.47
46223;BME280;31943;51.410;7.564;2023-01-31T07:17:42;100910.16;;;4.86;68.56
46223;BME280;31943;51.410;7.564;2023-01-31T07:20:10;100907.78;;;4.90;68.44
46223;BME280;31943;51.410;7.564;2023-01-31T07:22:36;100912.97;;;4.90;68.46
46223;BME280;31943;51.410;7.564;2023-01-31T07:25:02;100905.06;;;4.87;68.56
46223;BME280;31943;51.410;7.564;2023-01-31T07:27:28;100907.66;;;4.87;68.41
46223;BME280;31943;51.410;7.564;2023-01-31T07:29:54;100922.38;;;4.88;68.39
46223;BME280;31943;51.410;7.564;2023-01-31T07:32:22;100916.34;;;4.89;68.70
46223;BME280;31943;51.410;7.564;2023-01-31T07:34:52;100935.22;;;4.87;68.13
46223;BME280;31943;51.410;7.564;2023-01-31T07:37:18;100915.34;;;4.86;68.58
46223;BME280;31943;51.410;7.564;2023-01-31T07:39:43;100927.53;;;4.88;68.67
46223;BME280;31943;51.410;7.564;2023-01-31T07:42:10;100912.91;;;4.89;68.31
46223;BME280;31943;51.410;7.564;2023-01-31T07:44:36;100902.53;;;4.89;68.49
46223;BME280;31943;51.410;7.564;2023-01-31T07:47:02;100910.41;;;4.92;68.58
46223;BME280;31943;51.410;7.564;2023-01-31T07:49:29;100897.56;;;4.93;68.53
46223;BME280;31943;51.410;7.564;2023-01-31T07:51:54;100904.59;;;4.96;68.46
46223;BME280;31943;51.410;7.564;2023-01-31T07:54:20;100912.63;;;5.02;68.53
46223;BME280;31943;51.410;7.564;2023-01-31T07:56:46;100900.81;;;5.09;68.53
46223;BME280;31943;51.410;7.564;2023-01-31T07:59:12;100906.88;;;5.09;68.27
46223;BME280;31943;51.410;7.564;2023-01-31T08:01:38;100903.53;;;5.12;68.20
46223;BME280;31943;51.410;7.564;2023-01-31T08:04:05;100901.97;;;5.15;68.25
46223;BME280;31943;51.410;7.564;2023-01-31T08:06:32;100906.31;;;5.17;68.07
46223;BME280;31943;51.410;7.564;2023-01-31T08:08:59;100905.44;;;5.16;68.27
46223;BME280;31943;51.410;7.564;2023-01-31T08:11:25;100898.47;;;5.15;68.15
46223;BME280;31943;51.410;7.564;2023-01-31T08:13:51;100901.91;;;5.14;68.17
46223;BME280;31943;51.410;7.564;2023-01-31T08:16:16;100887.31;;;5.16;68.57
46223;BME280;31943;51.410;7.564;2023-01-31T08:18:42;100888.34;;;5.20;68.27
46223;BME280;31943;51.410;7.564;2023-01-31T08:21:10;100897.78;;;5.19;68.27
46223;BME280;31943;51.410;7.564;2023-01-31T08:23:38;100880.38;;;5.15;68.27
46223;BME280;31943;51.410;7.564;2023-01-31T08:26:07;100877.78;;;5.15;68.26
46223;BME280;31943;51.410;7.564;2023-01-31T08:28:34;100862.41;;;5.18;68.11
46223;BME280;31943;51.410;7.564;2023-01-31T08:31:00;100864.78;;;5.13;68.04
46223;BME280;31943;51.410;7.564;2023-01-31T08:33:27;100864.13;;;5.18;67.91
46223;BME280;31943;51.410;7.564;2023-01-31T08:35:52;100859.81;;;5.18;67.82
46223;BME280;31943;51.410;7.564;2023-01-31T08:38:18;100852.06;;;5.18;68.08
46223;BME280;31943;51.410;7.564;2023-01-31T08:40:45;100849.53;;;5.20;68.18
46223;BME280;31943;51.410;7.564;2023-01-31T08:43:12;100840.16;;;5.23;67.94
46223;BME280;31943;51.410;7.564;2023-01-31T08:45:37;100844.53;;;5.24;68.04
46223;BME280;31943;51.410;7.564;2023-01-31T08:48:03;100839.38;;;5.24;67.67
46223;BME280;31943;51.410;7.564;2023-01-31T08:50:30;100832.47;;;5.25;68.17
46223;BME280;31943;51.410;7.564;2023-01-31T08:52:58;100839.38;;;5.24;67.75
46223;BME280;31943;51.410;7.564;2023-01-31T08:55:24;100836.06;;;5.28;67.77
46223;BME280;31943;51.410;7.564;2023-01-31T08:57:52;100838.81;;;5.31;67.94
46223;BME280;31943;51.410;7.564;2023-01-31T09:00:19;100830.13;;;5.31;67.76
46223;BME280;31943;51.410;7.564;2023-01-31T09:02:50;100834.25;;;5.26;68.06
46223;BME280;31943;51.410;7.564;2023-01-31T09:05:17;100838.59;;;5.27;68.54
46223;BME280;31943;51.410;7.564;2023-01-31T09:07:43;100845.47;;;5.26;68.97
46223;BME280;31943;51.410;7.564;2023-01-31T09:10:09;100853.00;;;5.20;69.66
46223;BME280;31943;51.410;7.564;2023-01-31T09:12:35;100845.16;;;5.19;70.02
46223;BME280;31943;51.410;7.564;2023-01-31T09:15:03;100851.09;;;5.16;70.08
46223;BME280;31943;51.410;7.564;2023-01-31T09:17:30;100847.34;;;5.09;70.75
46223;BME280;31943;51.410;7.564;2023-01-31T09:19:56;100838.53;;;5.04;70.90
46223;BME280;31943;51.410;7.564;2023-01-31T09:22:24;100851.59;;;5.07;70.94
46223;BME280;31943;51.410;7.564;2023-01-31T09:24:50;100850.59;;;5.04;71.27
46223;BME280;31943;51.410;7.564;2023-01-31T09:27:16;100846.06;;;4.98;71.45
46223;BME280;31943;51.410;7.564;2023-01-31T09:29:42;100840.03;;;4.99;71.52
46223;BME280;31943;51.410;7.564;2023-01-31T09:32:09;100835.13;;;5.05;71.65
46223;BME280;31943;51.410;7.564;2023-01-31T09:34:35;100821.38;;;5.06;71.86
46223;BME280;31943;51.410;7.564;2023-01-31T09:37:00;100816.31;;;5.09;71.86
46223;BME280;31943;51.410;7.564;2023-01-31T09:39:26;100804.59;;;5.18;71.97
46223;BME280;31943;51.410;7.564;2023-01-31T09:41:54;100810.91;;;5.24;71.75
46223;BME280;31943;51.410;7.564;2023-01-31T09:44:25;100818.66;;;5.24;71.69
46223;BME280;31943;51.410;7.564;2023-01-31T09:46:57;100809.00;;;5.20;72.06
46223;BME280;31943;51.410;7.564;2023-01-31T09:49:29;100814.81;;;5.14;72.06
46223;BME280;31943;51.410;7.564;2023-01-31T09:51:59;100809.50;;;5.11;71.96
46223;BME280;31943;51.410;7.564;2023-01-31T09:54:29;100819.66;;;5.07;72.29
46223;BME280;31943;51.410;7.564;2023-01-31T09:57:04;100810.91;;;5.03;72.22
46223;BME280;31943;51.410;7.564;2023-01-31T09:59:43;100815.88;;;4.99;72.64
46223;BME280;31943;51.410;7.564;2023-01-31T10:02:30;100816.13;;;5.05;72.62
46223;BME280;31943;51.410;7.564;2023-01-31T10:05:10;100819.59;;;5.05;72.47
46223;BME280;31943;51.410;7.564;2023-01-31T10:07:44;100813.63;;;5.06;72.85
46223;BME280;31943;51.410;7.564;2023-01-31T10:10:19;100815.50;;;5.10;72.59
46223;BME280;31943;51.410;7.564;2023-01-31T10:12:53;100794.19;;;5.16;72.68
46223;BME280;31943;51.410;7.564;2023-01-31T10:15:28;100796.88;;;5.19;72.89
46223;BME280;31943;51.410;7.564;2023-01-31T10:17:57;100793.25;;;5.14;72.91
46223;BME280;31943;51.410;7.564;2023-01-31T10:20:32;100801.88;;;5.14;72.96
46223;BME280;31943;51.410;7.564;2023-01-31T10:23:04;100793.25;;;5.14;72.93
46223;BME280;31943;51.410;7.564;2023-01-31T10:25:35;100790.84;;;5.19;72.74
46223;BME280;31943;51.410;7.564;2023-01-31T10:28:05;100784.97;;;5.23;72.99
46223;BME280;31943;51.410;7.564;2023-01-31T10:30:41;100782.44;;;5.24;72.86
46223;BME280;31943;51.410;7.564;2023-01-31T10:33:20;100764.47;;;5.27;73.17
46223;BME280;31943;51.410;7.564;2023-01-31T10:35:49;100748.09;;;5.28;73.35
46223;BME280;31943;51.410;7.564;2023-01-31T10:38:19;100763.75;;;5.31;73.39
46223;BME280;31943;51.410;7.564;2023-01-31T10:40:52;100755.28;;;5.35;73.57
46223;BME280;31943;51.410;7.564;2023-01-31T10:43:26;100752.56;;;5.32;73.64
46223;BME280;31943;51.410;7.564;2023-01-31T10:45:54;100742.13;;;5.29;73.81
46223;BME280;31943;51.410;7.564;2023-01-31T10:48:22;100748.00;;;5.25;74.02
46223;BME280;31943;51.410;7.564;2023-01-31T10:51:01;100746.53;;;5.32;73.75
46223;BME280;31943;51.410;7.564;2023-01-31T10:53:54;100745.75;;;5.34;73.99
46223;BME280;31943;51.410;7.564;2023-01-31T10:56:30;100747.28;;;5.29;74.16
46223;BME280;31943;51.410;7.564;2023-01-31T10:58:57;100740.25;;;5.27;74.01
46223;BME280;31943;51.410;7.564;2023-01-31T11:01:25;100727.31;;;5.27;74.18
46223;BME280;31943;51.410;7.564;2023-01-31T11:03:52;100735.31;;;5.33;73.98
46223;BME280;31943;51.410;7.564;2023-01-31T11:06:21;100711.34;;;5.37;74.00
46223;BME280;31943;51.410;7.564;2023-01-31T11:08:49;100715.75;;;5.40;74.07
46223;BME280;31943;51.410;7.564;2023-01-31T11:11:18;100706.19;;;5.37;74.27
46223;BME280;31943;51.410;7.564;2023-01-31T11:13:55;100690.53;;;5.34;74.21
46223;BME280;31943;51.410;7.564;2023-01-31T11:16:25;100685.41;;;5.35;74.44
46223;BME280;31943;51.410;7.564;2023-01-31T11:18:52;100699.09;;;5.33;74.50
46223;BME280;31943;51.410;7.564;2023-01-31T11:21:26;100704.25;;;5.31;74.58
46223;BME280;31943;51.410;7.564;2023-01-31T11:24:00;100713.28;;;5.20;74.68
46223;BME280;31943;51.410;7.564;2023-01-31T11:26:29;100699.50;;;5.21;74.65
46223;BME280;31943;51.410;7.564;2023-01-31T11:28:55;100686.69;;;5.24;74.78
46223;BME280;31943;51.410;7.564;2023-01-31T11:31:28;100684.34;;;5.30;74.85
46223;BME280;31943;51.410;7.564;2023-01-31T11:33:58;100682.69;;;5.32;74.57
46223;BME280;31943;51.410;7.564;2023-01-31T11:36:30;100679.31;;;5.33;74.62
46223;BME280;31943;51.410;7.564;2023-01-31T11:38:57;100688.00;;;5.35;74.53
46223;BME280;31943;51.410;7.564;2023-01-31T11:41:29;100681.13;;;5.36;74.46
46223;BME280;31943;51.410;7.564;2023-01-31T11:44:07;100667.31;;;5.35;74.16
46223;BME280;31943;51.410;7.564;2023-01-31T11:46:41;100674.28;;;5.38;74.36
46223;BME280;31943;51.410;7.564;2023-01-31T11:49:11;100667.38;;;5.37;74.19
46223;BME280;31943;51.410;7.564;2023-01-31T11:51:38;100653.94;;;5.47;73.85
46223;BME280;31943;51.410;7.564;2023-01-31T11:54:06;100649.91;;;5.55;73.92
46223;BME280;31943;51.410;7.564;2023-01-31T11:56:34;100638.78;;;5.58;74.12
46223;BME280;31943;51.410;7.564;2023-01-31T11:59:05;100642.38;;;5.62;73.82
46223;BME280;31943;51.410;7.564;2023-01-31T12:01:32;100633.78;;;5.63;74.06
46223;BME280;31943;51.410;7.564;2023-01-31T12:04:00;100637.41;;;5.68;73.72
46223;BME280;31943;51.410;7.564;2023-01-31T12:06:28;100637.34;;;5.66;73.88
46223;BME280;31943;51.410;7.564;2023-01-31T12:08:58;100657.03;;;5.61;73.76
46223;BME280;31943;51.410;7.564;2023-01-31T12:11:27;100652.72;;;5.62;73.47
46223;BME280;31943;51.410;7.564;2023-01-31T12:14:00;100640.72;;;5.64;73.64
46223;BME280;31943;51.410;7.564;2023-01-31T12:16:28;100635.59;;;5.65;73.77
46223;BME280;31943;51.410;7.564;2023-01-31T12:19:05;100637.59;;;5.72;73.49
46223;BME280;31943;51.410;7.564;2023-01-31T12:21:48;100622.16;;;5.75;73.51
46223;BME280;31943;51.410;7.564;2023-01-31T12:24:30;100639.25;;;5.70;73.44
46223;BME280;31943;51.410;7.564;2023-01-31T12:27:04;100639.25;;;5.70;73.51
46223;BME280;31943;51.410;7.564;2023-01-31T12:29:57;100614.00;;;5.65;73.59
46223;BME280;31943;51.410;7.564;2023-01-31T12:32:48;100625.19;;;5.64;73.74
46223;BME280;31943;51.410;7.564;2023-01-31T12:35:32;100631.28;;;5.66;73.59
46223;BME280;31943;51.410;7.564;2023-01-31T12:38:08;100620.88;;;5.64;73.96
46223;BME280;31943;51.410;7.564;2023-01-31T12:40:42;100602.81;;;5.66;73.79
46223;BME280;31943;51.410;7.564;2023-01-31T12:43:24;100599.56;;;5.71;73.55
46223;BME280;31943;51.410;7.564;2023-01-31T12:46:04;100591.84;;;5.73;73.51
46223;BME280;31943;51.410;7.564;2023-01-31T12:48:48;100597.25;;;5.79;73.64
46223;BME280;31943;51.410;7.564;2023-01-31T12:51:31;100591.25;;;5.80;73.53
46223;BME280;31943;51.410;7.564;2023-01-31T12:54:07;100589.34;;;5.76;73.84
46223;BME280;31943;51.410;7.564;2023-01-31T12:56:46;100585.97;;;5.77;73.98
46223;BME280;31943;51.410;7.564;2023-01-31T12:59:28;100597.09;;;5.74;73.96
46223;BME280;31943;51.410;7.564;2023-01-31T13:02:08;100594.31;;;5.70;74.17
46223;BME280;31943;51.410;7.564;2023-01-31T13:04:43;100602.94;;;5.69;73.96
46223;BME280;31943;51.410;7.564;2023-01-31T13:07:14;100610.72;;;5.69;74.16
46223;BME280;31943;51.410;7.564;2023-01-31T13:09:45;100609.19;;;5.75;74.05
46223;BME280;31943;51.410;7.564;2023-01-31T13:12:15;100606.66;;;5.77;74.12
46223;BME280;31943;51.410;7.564;2023-01-31T13:14:45;100602.38;;;5.78;74.19
46223;BME280;31943;51.410;7.564;2023-01-31T13:17:17;100603.22;;;5.77;74.14